Aho, North Carolina
Current Conditions -  °F | °C
As of 7:55 PM on Friday 28 Nov 2014 (Local Time) from KTNB Reporting Station
Clear Clear  
Wind Chill: 28°   Ceiling: Unl
Heat Index: 28°   Visibility: 10mi
Dew Point: 21°   Wind: 0mph
Humidity: 78%   Direction: NA
Pressure: 30.21"   Gusts: NA
Location:  36.0473°N, 81.8148°W
Report Text: KTNB 290055Z AUTO 00000KT 10SM CLR M02/M06 A3021 RMK AO2 T10251059
Loading
Personal Weather Stations






























Interactive Weather Map New forecast layout! Learn more

10-Day Weather Forecast

Advertisements
Track Severe Weather on mobile